23:24
Airports
Links
Donate
Help keep this website running!
PayPal
Bitcoin
MATER
No METAR for PHHI
Current Weather Conditions at
No weather report for PHHI
TAF
TAF PHHI 201500Z 2015/2121 VRB06KT 9999 SCT015 SCT030 QNH2990INS TX25/2022Z TN13/2016Z
Forecast at PHHI
15:00 20-02-18 to 21:00 21-02-18
Wind:6 Knots from 360°
Visibility:6.21 statute miles
1500SCT Scattered
3000SCT Scattered